sensor_id;sensor_type;location;lat;lon;timestamp;temperature;humidity
9971;DHT22;5026;51.494;11.974;2022-07-17T00:01:47;13.60;70.90
9971;DHT22;5026;51.494;11.974;2022-07-17T00:04:14;13.50;71.10
9971;DHT22;5026;51.494;11.974;2022-07-17T00:06:42;13.50;71.40
9971;DHT22;5026;51.494;11.974;2022-07-17T00:09:09;13.50;71.70
9971;DHT22;5026;51.494;11.974;2022-07-17T00:11:36;13.40;71.80
9971;DHT22;5026;51.494;11.974;2022-07-17T00:14:03;14.30;73.20
9971;DHT22;5026;51.494;11.974;2022-07-17T00:16:30;13.30;72.80
9971;DHT22;5026;51.494;11.974;2022-07-17T00:18:57;13.30;72.50
9971;DHT22;5026;51.494;11.974;2022-07-17T00:21:24;13.30;72.80
9971;DHT22;5026;51.494;11.974;2022-07-17T00:23:52;13.30;73.00
9971;DHT22;5026;51.494;11.974;2022-07-17T00:26:19;13.20;73.30
9971;DHT22;5026;51.494;11.974;2022-07-17T00:28:46;13.20;73.60
9971;DHT22;5026;51.494;11.974;2022-07-17T00:31:13;13.10;73.70
9971;DHT22;5026;51.494;11.974;2022-07-17T00:33:40;13.20;74.10
9971;DHT22;5026;51.494;11.974;2022-07-17T00:36:08;13.10;74.30
9971;DHT22;5026;51.494;11.974;2022-07-17T00:38:35;13.10;74.70
9971;DHT22;5026;51.494;11.974;2022-07-17T00:41:03;13.10;74.90
9971;DHT22;5026;51.494;11.974;2022-07-17T00:43:30;13.00;75.10
9971;DHT22;5026;51.494;11.974;2022-07-17T00:45:59;13.00;75.30
9971;DHT22;5026;51.494;11.974;2022-07-17T00:48:26;13.00;75.50
9971;DHT22;5026;51.494;11.974;2022-07-17T00:50:54;13.00;75.80
9971;DHT22;5026;51.494;11.974;2022-07-17T00:53:21;13.60;76.50
9971;DHT22;5026;51.494;11.974;2022-07-17T00:55:49;12.90;76.30
9971;DHT22;5026;51.494;11.974;2022-07-17T00:58:23;13.30;77.00
9971;DHT22;5026;51.494;11.974;2022-07-17T01:00:52;12.80;76.90
9971;DHT22;5026;51.494;11.974;2022-07-17T01:03:20;12.80;77.30
9971;DHT22;5026;51.494;11.974;2022-07-17T01:05:47;12.80;77.50
9971;DHT22;5026;51.494;11.974;2022-07-17T01:08:14;12.80;77.80
9971;DHT22;5026;51.494;11.974;2022-07-17T01:10:42;12.70;78.00
9971;DHT22;5026;51.494;11.974;2022-07-17T01:13:09;12.70;78.30
9971;DHT22;5026;51.494;11.974;2022-07-17T01:15:39;12.70;78.50
9971;DHT22;5026;51.494;11.974;2022-07-17T01:18:07;12.70;78.70
9971;DHT22;5026;51.494;11.974;2022-07-17T01:20:35;12.60;78.90
9971;DHT22;5026;51.494;11.974;2022-07-17T01:23:03;12.60;79.20
9971;DHT22;5026;51.494;11.974;2022-07-17T01:25:31;12.60;79.40
9971;DHT22;5026;51.494;11.974;2022-07-17T01:27:58;12.50;79.50
9971;DHT22;5026;51.494;11.974;2022-07-17T01:30:25;12.50;80.10
9971;DHT22;5026;51.494;11.974;2022-07-17T01:32:52;12.50;80.20
9971;DHT22;5026;51.494;11.974;2022-07-17T01:35:19;12.50;80.50
9971;DHT22;5026;51.494;11.974;2022-07-17T01:37:47;12.40;80.70
9971;DHT22;5026;51.494;11.974;2022-07-17T01:40:21;12.40;81.00
9971;DHT22;5026;51.494;11.974;2022-07-17T01:42:49;12.40;81.30
9971;DHT22;5026;51.494;11.974;2022-07-17T01:45:17;12.40;81.50
9971;DHT22;5026;51.494;11.974;2022-07-17T01:47:45;11.70;81.30
9971;DHT22;5026;51.494;11.974;2022-07-17T01:50:12;12.30;82.10
9971;DHT22;5026;51.494;11.974;2022-07-17T01:52:41;12.30;82.30
9971;DHT22;5026;51.494;11.974;2022-07-17T01:55:10;12.20;82.40
9971;DHT22;5026;51.494;11.974;2022-07-17T01:57:39;13.30;83.40
9971;DHT22;5026;51.494;11.974;2022-07-17T02:00:09;12.20;82.80
9971;DHT22;5026;51.494;11.974;2022-07-17T02:02:37;12.20;83.00
9971;DHT22;5026;51.494;11.974;2022-07-17T02:05:04;12.20;83.20
9971;DHT22;5026;51.494;11.974;2022-07-17T02:07:31;12.10;83.40
9971;DHT22;5026;51.494;11.974;2022-07-17T02:09:58;12.10;83.40
9971;DHT22;5026;51.494;11.974;2022-07-17T02:12:25;12.10;83.60
9971;DHT22;5026;51.494;11.974;2022-07-17T02:14:54;12.00;84.10
9971;DHT22;5026;51.494;11.974;2022-07-17T02:17:21;12.10;84.10
9971;DHT22;5026;51.494;11.974;2022-07-17T02:19:48;12.00;84.10
9971;DHT22;5026;51.494;11.974;2022-07-17T02:22:15;12.70;84.60
9971;DHT22;5026;51.494;11.974;2022-07-17T02:24:41;12.00;84.20
9971;DHT22;5026;51.494;11.974;2022-07-17T02:27:08;12.00;84.30
9971;DHT22;5026;51.494;11.974;2022-07-17T02:29:35;12.00;84.60
9971;DHT22;5026;51.494;11.974;2022-07-17T02:32:04;12.00;84.70
9971;DHT22;5026;51.494;11.974;2022-07-17T02:34:31;11.90;84.70
9971;DHT22;5026;51.494;11.974;2022-07-17T02:36:58;11.90;85.00
9971;DHT22;5026;51.494;11.974;2022-07-17T02:39:25;11.90;85.30
9971;DHT22;5026;51.494;11.974;2022-07-17T02:41:52;11.80;85.70
9971;DHT22;5026;51.494;11.974;2022-07-17T02:44:19;11.80;85.50
9971;DHT22;5026;51.494;11.974;2022-07-17T02:46:46;11.80;85.70
9971;DHT22;5026;51.494;11.974;2022-07-17T02:49:14;11.80;85.90
9971;DHT22;5026;51.494;11.974;2022-07-17T02:51:41;11.70;86.00
9971;DHT22;5026;51.494;11.974;2022-07-17T02:54:08;11.70;86.10
9971;DHT22;5026;51.494;11.974;2022-07-17T02:56:35;11.70;86.30
9971;DHT22;5026;51.494;11.974;2022-07-17T02:59:07;11.60;86.40
9971;DHT22;5026;51.494;11.974;2022-07-17T03:01:34;11.70;86.60
9971;DHT22;5026;51.494;11.974;2022-07-17T03:04:00;11.60;86.60
9971;DHT22;5026;51.494;11.974;2022-07-17T03:06:29;11.60;86.80
9971;DHT22;5026;51.494;11.974;2022-07-17T03:08:56;11.60;86.90
9971;DHT22;5026;51.494;11.974;2022-07-17T03:11:23;11.60;87.10
9971;DHT22;5026;51.494;11.974;2022-07-17T03:13:50;11.60;87.20
9971;DHT22;5026;51.494;11.974;2022-07-17T03:16:17;11.60;87.30
9971;DHT22;5026;51.494;11.974;2022-07-17T03:18:44;11.60;87.40
9971;DHT22;5026;51.494;11.974;2022-07-17T03:21:11;11.70;87.70
9971;DHT22;5026;51.494;11.974;2022-07-17T03:23:39;11.60;87.70
9971;DHT22;5026;51.494;11.974;2022-07-17T03:26:06;11.60;87.90
9971;DHT22;5026;51.494;11.974;2022-07-17T03:28:33;11.60;88.00
9971;DHT22;5026;51.494;11.974;2022-07-17T03:30:59;11.60;88.10
9971;DHT22;5026;51.494;11.974;2022-07-17T03:33:26;11.60;88.20
9971;DHT22;5026;51.494;11.974;2022-07-17T03:35:53;11.60;88.30
9971;DHT22;5026;51.494;11.974;2022-07-17T03:38:21;11.60;88.60
9971;DHT22;5026;51.494;11.974;2022-07-17T03:40:50;11.70;89.10
9971;DHT22;5026;51.494;11.974;2022-07-17T03:43:17;11.70;89.60
9971;DHT22;5026;51.494;11.974;2022-07-17T03:45:44;11.80;89.60
9971;DHT22;5026;51.494;11.974;2022-07-17T03:48:11;11.80;89.80
9971;DHT22;5026;51.494;11.974;2022-07-17T03:50:38;11.80;89.80
9971;DHT22;5026;51.494;11.974;2022-07-17T03:53:05;11.90;89.80
9971;DHT22;5026;51.494;11.974;2022-07-17T03:55:32;12.00;90.00
9971;DHT22;5026;51.494;11.974;2022-07-17T03:58:01;12.00;90.00
9971;DHT22;5026;51.494;11.974;2022-07-17T04:00:29;12.00;89.90
9971;DHT22;5026;51.494;11.974;2022-07-17T04:02:55;12.00;89.60
9971;DHT22;5026;51.494;11.974;2022-07-17T04:05:23;12.10;89.30
9971;DHT22;5026;51.494;11.974;2022-07-17T04:07:50;12.20;89.40
9971;DHT22;5026;51.494;11.974;2022-07-17T04:10:17;12.20;89.20
9971;DHT22;5026;51.494;11.974;2022-07-17T04:12:44;12.20;89.10
9971;DHT22;5026;51.494;11.974;2022-07-17T04:15:12;12.20;89.00
9971;DHT22;5026;51.494;11.974;2022-07-17T04:17:59;12.30;89.10
9971;DHT22;5026;51.494;11.974;2022-07-17T04:20:26;12.30;89.00
9971;DHT22;5026;51.494;11.974;2022-07-17T04:22:54;12.40;88.90
9971;DHT22;5026;51.494;11.974;2022-07-17T04:25:21;12.40;88.80
9971;DHT22;5026;51.494;11.974;2022-07-17T04:27:47;12.40;88.80
9971;DHT22;5026;51.494;11.974;2022-07-17T04:30:16;12.40;88.80
9971;DHT22;5026;51.494;11.974;2022-07-17T04:32:43;12.40;89.10
9971;DHT22;5026;51.494;11.974;2022-07-17T04:35:09;12.50;88.80
9971;DHT22;5026;51.494;11.974;2022-07-17T04:37:36;12.50;88.70
9971;DHT22;5026;51.494;11.974;2022-07-17T04:40:04;12.60;88.90
9971;DHT22;5026;51.494;11.974;2022-07-17T04:42:31;12.60;88.80
9971;DHT22;5026;51.494;11.974;2022-07-17T04:44:58;12.70;89.20
9971;DHT22;5026;51.494;11.974;2022-07-17T04:47:27;12.80;88.70
9971;DHT22;5026;51.494;11.974;2022-07-17T04:49:54;12.90;88.60
9971;DHT22;5026;51.494;11.974;2022-07-17T04:52:21;12.90;88.20
9971;DHT22;5026;51.494;11.974;2022-07-17T04:54:48;13.00;88.20
9971;DHT22;5026;51.494;11.974;2022-07-17T04:57:15;13.10;88.10
9971;DHT22;5026;51.494;11.974;2022-07-17T04:59:43;13.10;87.90
9971;DHT22;5026;51.494;11.974;2022-07-17T05:02:10;13.20;87.60
9971;DHT22;5026;51.494;11.974;2022-07-17T05:04:38;13.20;87.40
9971;DHT22;5026;51.494;11.974;2022-07-17T05:07:05;13.30;87.50
9971;DHT22;5026;51.494;11.974;2022-07-17T05:09:32;13.30;87.50
9971;DHT22;5026;51.494;11.974;2022-07-17T05:11:59;14.20;87.80
9971;DHT22;5026;51.494;11.974;2022-07-17T05:14:26;13.50;87.00
9971;DHT22;5026;51.494;11.974;2022-07-17T05:16:53;13.80;86.80
9971;DHT22;5026;51.494;11.974;2022-07-17T05:19:19;13.60;86.60
9971;DHT22;5026;51.494;11.974;2022-07-17T05:21:48;13.60;86.30
9971;DHT22;5026;51.494;11.974;2022-07-17T05:24:15;13.70;86.10
9971;DHT22;5026;51.494;11.974;2022-07-17T05:26:43;14.00;85.70
9971;DHT22;5026;51.494;11.974;2022-07-17T05:29:10;14.70;85.30
9971;DHT22;5026;51.494;11.974;2022-07-17T05:31:37;15.40;84.20
9971;DHT22;5026;51.494;11.974;2022-07-17T05:34:04;15.80;83.20
9971;DHT22;5026;51.494;11.974;2022-07-17T05:36:31;16.50;82.00
9971;DHT22;5026;51.494;11.974;2022-07-17T05:39:00;16.70;81.00
9971;DHT22;5026;51.494;11.974;2022-07-17T05:41:27;16.70;80.10
9971;DHT22;5026;51.494;11.974;2022-07-17T05:43:54;16.60;80.10
9971;DHT22;5026;51.494;11.974;2022-07-17T05:46:21;16.80;80.40
9971;DHT22;5026;51.494;11.974;2022-07-17T05:48:48;18.10;79.70
9971;DHT22;5026;51.494;11.974;2022-07-17T05:51:15;19.40;76.80
9971;DHT22;5026;51.494;11.974;2022-07-17T05:53:42;19.70;75.00
9971;DHT22;5026;51.494;11.974;2022-07-17T05:56:10;19.60;74.90
9971;DHT22;5026;51.494;11.974;2022-07-17T05:58:37;20.30;74.00
9971;DHT22;5026;51.494;11.974;2022-07-17T06:01:04;21.60;73.00
9971;DHT22;5026;51.494;11.974;2022-07-17T06:03:31;23.60;69.50
9971;DHT22;5026;51.494;11.974;2022-07-17T06:05:58;25.70;66.70
9971;DHT22;5026;51.494;11.974;2022-07-17T06:08:25;27.70;62.10
9971;DHT22;5026;51.494;11.974;2022-07-17T06:10:52;29.60;58.20
9971;DHT22;5026;51.494;11.974;2022-07-17T06:13:20;30.50;53.10
9971;DHT22;5026;51.494;11.974;2022-07-17T06:15:47;31.50;51.20
9971;DHT22;5026;51.494;11.974;2022-07-17T06:18:14;32.60;49.00
9971;DHT22;5026;51.494;11.974;2022-07-17T06:20:41;33.60;47.50
9971;DHT22;5026;51.494;11.974;2022-07-17T06:23:08;34.20;46.10
9971;DHT22;5026;51.494;11.974;2022-07-17T06:25:35;34.50;45.00
9971;DHT22;5026;51.494;11.974;2022-07-17T06:28:02;35.00;44.70
9971;DHT22;5026;51.494;11.974;2022-07-17T06:30:31;35.80;43.70
9971;DHT22;5026;51.494;11.974;2022-07-17T06:32:58;36.80;42.40
9971;DHT22;5026;51.494;11.974;2022-07-17T06:35:25;37.90;41.30
9971;DHT22;5026;51.494;11.974;2022-07-17T06:37:52;38.20;39.80
9971;DHT22;5026;51.494;11.974;2022-07-17T06:40:19;38.00;39.80
9971;DHT22;5026;51.494;11.974;2022-07-17T06:42:46;37.80;39.20
9971;DHT22;5026;51.494;11.974;2022-07-17T06:45:13;37.10;39.30
9971;DHT22;5026;51.494;11.974;2022-07-17T06:47:41;38.00;38.90
9971;DHT22;5026;51.494;11.974;2022-07-17T06:50:08;38.80;38.30
9971;DHT22;5026;51.494;11.974;2022-07-17T06:52:36;39.30;37.80
9971;DHT22;5026;51.494;11.974;2022-07-17T06:55:03;38.40;37.10
9971;DHT22;5026;51.494;11.974;2022-07-17T06:57:30;36.60;39.10
9971;DHT22;5026;51.494;11.974;2022-07-17T06:59:57;37.50;37.60
9971;DHT22;5026;51.494;11.974;2022-07-17T07:02:24;38.40;37.90
9971;DHT22;5026;51.494;11.974;2022-07-17T07:04:52;39.00;37.50
9971;DHT22;5026;51.494;11.974;2022-07-17T07:07:19;39.50;36.60
9971;DHT22;5026;51.494;11.974;2022-07-17T07:09:47;39.70;36.60
9971;DHT22;5026;51.494;11.974;2022-07-17T07:12:13;39.60;36.10
9971;DHT22;5026;51.494;11.974;2022-07-17T07:14:40;40.50;35.80
9971;DHT22;5026;51.494;11.974;2022-07-17T07:17:07;40.80;35.20
9971;DHT22;5026;51.494;11.974;2022-07-17T07:19:35;41.60;34.90
9971;DHT22;5026;51.494;11.974;2022-07-17T07:22:03;42.60;35.70
9971;DHT22;5026;51.494;11.974;2022-07-17T07:24:30;42.50;33.80
9971;DHT22;5026;51.494;11.974;2022-07-17T07:26:57;42.90;33.60
9971;DHT22;5026;51.494;11.974;2022-07-17T07:29:29;41.40;34.00
9971;DHT22;5026;51.494;11.974;2022-07-17T07:31:56;42.10;34.30
9971;DHT22;5026;51.494;11.974;2022-07-17T07:34:22;40.80;34.70
9971;DHT22;5026;51.494;11.974;2022-07-17T07:36:49;41.80;34.60
9971;DHT22;5026;51.494;11.974;2022-07-17T07:39:18;42.70;34.00
9971;DHT22;5026;51.494;11.974;2022-07-17T07:41:45;42.70;33.50
9971;DHT22;5026;51.494;11.974;2022-07-17T07:44:12;42.50;34.10
9971;DHT22;5026;51.494;11.974;2022-07-17T07:46:39;42.20;33.90
9971;DHT22;5026;51.494;11.974;2022-07-17T07:49:06;42.10;33.70
9971;DHT22;5026;51.494;11.974;2022-07-17T07:51:33;42.30;34.20
9971;DHT22;5026;51.494;11.974;2022-07-17T07:54:00;42.40;33.50
9971;DHT22;5026;51.494;11.974;2022-07-17T07:56:28;42.60;34.20
9971;DHT22;5026;51.494;11.974;2022-07-17T07:58:55;43.20;33.60
9971;DHT22;5026;51.494;11.974;2022-07-17T08:01:22;42.80;33.30
9971;DHT22;5026;51.494;11.974;2022-07-17T08:03:49;43.40;33.50
9971;DHT22;5026;51.494;11.974;2022-07-17T08:06:16;42.80;33.60
9971;DHT22;5026;51.494;11.974;2022-07-17T08:08:43;41.80;33.10
9971;DHT22;5026;51.494;11.974;2022-07-17T08:11:10;41.30;33.80
9971;DHT22;5026;51.494;11.974;2022-07-17T08:13:38;42.30;33.90
9971;DHT22;5026;51.494;11.974;2022-07-17T08:16:06;43.20;33.60
9971;DHT22;5026;51.494;11.974;2022-07-17T08:18:34;40.50;34.50
9971;DHT22;5026;51.494;11.974;2022-07-17T08:21:02;39.60;35.00
9971;DHT22;5026;51.494;11.974;2022-07-17T08:23:28;36.10;33.70
9971;DHT22;5026;51.494;11.974;2022-07-17T08:25:55;35.60;37.40
9971;DHT22;5026;51.494;11.974;2022-07-17T08:28:22;37.00;37.10
9971;DHT22;5026;51.494;11.974;2022-07-17T08:30:51;39.40;35.80
9971;DHT22;5026;51.494;11.974;2022-07-17T08:33:18;39.70;34.10
9971;DHT22;5026;51.494;11.974;2022-07-17T08:35:45;38.50;34.20
9971;DHT22;5026;51.494;11.974;2022-07-17T08:38:12;38.50;35.10
9971;DHT22;5026;51.494;11.974;2022-07-17T08:40:39;38.00;34.70
9971;DHT22;5026;51.494;11.974;2022-07-17T08:43:09;36.50;35.00
9971;DHT22;5026;51.494;11.974;2022-07-17T08:45:39;37.90;35.50
9971;DHT22;5026;51.494;11.974;2022-07-17T08:48:12;39.10;35.40
9971;DHT22;5026;51.494;11.974;2022-07-17T08:50:46;40.00;34.00
9971;DHT22;5026;51.494;11.974;2022-07-17T08:53:13;40.80;33.70
9971;DHT22;5026;51.494;11.974;2022-07-17T08:55:41;41.70;33.20
9971;DHT22;5026;51.494;11.974;2022-07-17T08:58:08;41.80;32.40
9971;DHT22;5026;51.494;11.974;2022-07-17T09:00:35;40.20;32.70
9971;DHT22;5026;51.494;11.974;2022-07-17T09:03:03;38.70;33.60
9971;DHT22;5026;51.494;11.974;2022-07-17T09:05:34;38.90;34.10
9971;DHT22;5026;51.494;11.974;2022-07-17T09:08:02;39.10;34.10
9971;DHT22;5026;51.494;11.974;2022-07-17T09:10:37;38.90;33.70
9971;DHT22;5026;51.494;11.974;2022-07-17T09:13:16;39.20;33.70
9971;DHT22;5026;51.494;11.974;2022-07-17T09:15:43;39.20;33.80
9971;DHT22;5026;51.494;11.974;2022-07-17T09:18:10;38.90;32.90
9971;DHT22;5026;51.494;11.974;2022-07-17T09:20:43;38.20;33.90
9971;DHT22;5026;51.494;11.974;2022-07-17T09:23:11;37.80;33.80
9971;DHT22;5026;51.494;11.974;2022-07-17T09:25:39;38.00;34.40
9971;DHT22;5026;51.494;11.974;2022-07-17T09:28:08;38.50;33.90
9971;DHT22;5026;51.494;11.974;2022-07-17T09:30:36;38.50;33.80
9971;DHT22;5026;51.494;11.974;2022-07-17T09:33:07;38.60;33.90
9971;DHT22;5026;51.494;11.974;2022-07-17T09:35:36;36.70;34.70
9971;DHT22;5026;51.494;11.974;2022-07-17T09:38:12;36.00;35.10
9971;DHT22;5026;51.494;11.974;2022-07-17T09:40:39;36.00;35.10
9971;DHT22;5026;51.494;11.974;2022-07-17T09:43:39;36.50;35.00
9971;DHT22;5026;51.494;11.974;2022-07-17T09:46:08;37.10;34.20
9971;DHT22;5026;51.494;11.974;2022-07-17T09:48:39;37.00;34.20
9971;DHT22;5026;51.494;11.974;2022-07-17T09:51:08;36.90;34.00
9971;DHT22;5026;51.494;11.974;2022-07-17T09:53:38;34.10;33.80
9971;DHT22;5026;51.494;11.974;2022-07-17T09:56:05;30.90;36.70
9971;DHT22;5026;51.494;11.974;2022-07-17T09:58:35;30.70;37.50
9971;DHT22;5026;51.494;11.974;2022-07-17T10:01:05;31.00;37.10
9971;DHT22;5026;51.494;11.974;2022-07-17T10:03:32;31.70;37.50
9971;DHT22;5026;51.494;11.974;2022-07-17T10:05:59;32.60;36.20
9971;DHT22;5026;51.494;11.974;2022-07-17T10:08:27;32.70;35.40
9971;DHT22;5026;51.494;11.974;2022-07-17T10:10:56;32.80;35.30
9971;DHT22;5026;51.494;11.974;2022-07-17T10:13:23;33.40;35.40
9971;DHT22;5026;51.494;11.974;2022-07-17T10:15:50;32.50;35.70
9971;DHT22;5026;51.494;11.974;2022-07-17T10:18:21;31.00;36.60
9971;DHT22;5026;51.494;11.974;2022-07-17T10:20:48;30.40;37.60
9971;DHT22;5026;51.494;11.974;2022-07-17T10:23:15;31.00;37.50
9971;DHT22;5026;51.494;11.974;2022-07-17T10:25:43;30.60;37.00
9971;DHT22;5026;51.494;11.974;2022-07-17T10:28:11;30.30;36.80
9971;DHT22;5026;51.494;11.974;2022-07-17T10:30:41;30.00;36.00
9971;DHT22;5026;51.494;11.974;2022-07-17T10:33:09;29.00;37.60
9971;DHT22;5026;51.494;11.974;2022-07-17T10:35:45;28.60;38.60
9971;DHT22;5026;51.494;11.974;2022-07-17T10:38:14;28.30;38.30
9971;DHT22;5026;51.494;11.974;2022-07-17T10:40:41;27.90;39.00
9971;DHT22;5026;51.494;11.974;2022-07-17T10:43:09;27.60;39.60
9971;DHT22;5026;51.494;11.974;2022-07-17T10:45:39;27.10;39.80
9971;DHT22;5026;51.494;11.974;2022-07-17T10:48:09;27.10;40.20
9971;DHT22;5026;51.494;11.974;2022-07-17T10:50:38;26.70;40.20
9971;DHT22;5026;51.494;11.974;2022-07-17T10:53:12;25.40;40.60
9971;DHT22;5026;51.494;11.974;2022-07-17T10:55:42;24.90;42.00
9971;DHT22;5026;51.494;11.974;2022-07-17T10:58:18;24.80;43.00
9971;DHT22;5026;51.494;11.974;2022-07-17T11:00:57;25.10;43.10
9971;DHT22;5026;51.494;11.974;2022-07-17T11:03:24;25.40;42.50
9971;DHT22;5026;51.494;11.974;2022-07-17T11:05:52;25.50;41.70
9971;DHT22;5026;51.494;11.974;2022-07-17T11:08:19;25.20;42.00
9971;DHT22;5026;51.494;11.974;2022-07-17T11:10:46;24.60;42.90
9971;DHT22;5026;51.494;11.974;2022-07-17T11:13:15;25.10;43.20
9971;DHT22;5026;51.494;11.974;2022-07-17T11:15:45;25.60;42.40
9971;DHT22;5026;51.494;11.974;2022-07-17T11:18:26;26.10;42.30
9971;DHT22;5026;51.494;11.974;2022-07-17T11:20:55;26.50;41.10
9971;DHT22;5026;51.494;11.974;2022-07-17T11:23:24;26.90;39.70
9971;DHT22;5026;51.494;11.974;2022-07-17T11:25:53;27.30;39.50
9971;DHT22;5026;51.494;11.974;2022-07-17T11:28:31;27.70;39.00
9971;DHT22;5026;51.494;11.974;2022-07-17T11:30:58;27.60;39.00
9971;DHT22;5026;51.494;11.974;2022-07-17T11:33:27;27.20;39.10
9971;DHT22;5026;51.494;11.974;2022-07-17T11:35:54;26.30;39.60
9971;DHT22;5026;51.494;11.974;2022-07-17T11:38:25;25.90;40.60
9971;DHT22;5026;51.494;11.974;2022-07-17T11:40:53;25.70;41.00
9971;DHT22;5026;51.494;11.974;2022-07-17T11:43:20;25.60;40.70
9971;DHT22;5026;51.494;11.974;2022-07-17T11:45:47;25.30;41.00
9971;DHT22;5026;51.494;11.974;2022-07-17T11:48:14;24.80;41.10
9971;DHT22;5026;51.494;11.974;2022-07-17T11:50:52;24.30;42.00
9971;DHT22;5026;51.494;11.974;2022-07-17T11:53:31;24.60;42.50
9971;DHT22;5026;51.494;11.974;2022-07-17T11:55:59;24.90;41.80
9971;DHT22;5026;51.494;11.974;2022-07-17T11:58:26;25.10;41.60
9971;DHT22;5026;51.494;11.974;2022-07-17T12:01:01;25.00;41.60
9971;DHT22;5026;51.494;11.974;2022-07-17T12:03:29;24.80;41.10
9971;DHT22;5026;51.494;11.974;2022-07-17T12:05:57;24.20;41.30
9971;DHT22;5026;51.494;11.974;2022-07-17T12:08:24;23.70;41.80
9971;DHT22;5026;51.494;11.974;2022-07-17T12:11:02;23.90;42.00
9971;DHT22;5026;51.494;11.974;2022-07-17T12:13:48;24.20;41.80
9971;DHT22;5026;51.494;11.974;2022-07-17T12:16:34;24.50;41.50
9971;DHT22;5026;51.494;11.974;2022-07-17T12:19:05;24.50;40.80
9971;DHT22;5026;51.494;11.974;2022-07-17T12:21:47;24.50;41.40
9971;DHT22;5026;51.494;11.974;2022-07-17T12:24:21;24.60;41.80
9971;DHT22;5026;51.494;11.974;2022-07-17T12:26:48;24.70;41.90
9971;DHT22;5026;51.494;11.974;2022-07-17T12:29:17;24.80;41.40
9971;DHT22;5026;51.494;11.974;2022-07-17T12:31:44;25.10;41.80
9971;DHT22;5026;51.494;11.974;2022-07-17T12:34:11;25.10;41.30
9971;DHT22;5026;51.494;11.974;2022-07-17T12:36:40;25.00;41.10
9971;DHT22;5026;51.494;11.974;2022-07-17T12:39:07;24.60;41.10
9971;DHT22;5026;51.494;11.974;2022-07-17T12:41:34;24.60;41.20
9971;DHT22;5026;51.494;11.974;2022-07-17T12:44:01;24.50;41.30
9971;DHT22;5026;51.494;11.974;2022-07-17T12:46:27;24.40;41.70
9971;DHT22;5026;51.494;11.974;2022-07-17T12:49:04;24.50;41.70
9971;DHT22;5026;51.494;11.974;2022-07-17T12:51:31;24.80;41.20
9971;DHT22;5026;51.494;11.974;2022-07-17T12:54:00;24.90;41.10
9971;DHT22;5026;51.494;11.974;2022-07-17T12:56:27;25.00;40.70
9971;DHT22;5026;51.494;11.974;2022-07-17T12:58:54;25.20;40.80
9971;DHT22;5026;51.494;11.974;2022-07-17T13:01:21;25.30;39.90
9971;DHT22;5026;51.494;11.974;2022-07-17T13:03:48;25.00;40.40
9971;DHT22;5026;51.494;11.974;2022-07-17T13:06:15;24.90;40.60
9971;DHT22;5026;51.494;11.974;2022-07-17T13:08:42;25.00;40.60
9971;DHT22;5026;51.494;11.974;2022-07-17T13:11:10;24.50;40.50
9971;DHT22;5026;51.494;11.974;2022-07-17T13:13:37;24.40;40.40
9971;DHT22;5026;51.494;11.974;2022-07-17T13:16:05;24.40;40.20
9971;DHT22;5026;51.494;11.974;2022-07-17T13:18:32;24.60;40.80
9971;DHT22;5026;51.494;11.974;2022-07-17T13:20:59;24.60;40.20
9971;DHT22;5026;51.494;11.974;2022-07-17T13:23:26;24.80;40.00
9971;DHT22;5026;51.494;11.974;2022-07-17T13:25:53;25.00;39.70
9971;DHT22;5026;51.494;11.974;2022-07-17T13:28:22;25.10;39.50
9971;DHT22;5026;51.494;11.974;2022-07-17T13:30:49;25.20;39.40
9971;DHT22;5026;51.494;11.974;2022-07-17T13:33:16;25.20;39.10
9971;DHT22;5026;51.494;11.974;2022-07-17T13:35:43;25.10;39.30
9971;DHT22;5026;51.494;11.974;2022-07-17T13:38:11;25.10;39.70
9971;DHT22;5026;51.494;11.974;2022-07-17T13:40:38;24.90;38.90
9971;DHT22;5026;51.494;11.974;2022-07-17T13:43:05;24.50;39.30
9971;DHT22;5026;51.494;11.974;2022-07-17T13:45:33;24.60;39.50
9971;DHT22;5026;51.494;11.974;2022-07-17T13:48:00;24.60;39.40
9971;DHT22;5026;51.494;11.974;2022-07-17T13:50:28;24.60;39.70
9971;DHT22;5026;51.494;11.974;2022-07-17T13:52:55;24.80;39.30
9971;DHT22;5026;51.494;11.974;2022-07-17T13:55:23;24.90;39.10
9971;DHT22;5026;51.494;11.974;2022-07-17T13:57:50;24.90;39.20
9971;DHT22;5026;51.494;11.974;2022-07-17T14:00:18;25.00;39.10
9971;DHT22;5026;51.494;11.974;2022-07-17T14:02:46;25.10;39.30
9971;DHT22;5026;51.494;11.974;2022-07-17T14:05:13;25.30;39.10
9971;DHT22;5026;51.494;11.974;2022-07-17T14:07:40;25.40;38.80
9971;DHT22;5026;51.494;11.974;2022-07-17T14:10:07;25.40;37.90
9971;DHT22;5026;51.494;11.974;2022-07-17T14:12:35;25.50;37.60
9971;DHT22;5026;51.494;11.974;2022-07-17T14:15:03;25.40;36.50
9971;DHT22;5026;51.494;11.974;2022-07-17T14:17:32;25.40;37.00
9971;DHT22;5026;51.494;11.974;2022-07-17T14:20:02;25.40;37.60
9971;DHT22;5026;51.494;11.974;2022-07-17T14:22:29;25.30;37.40
9971;DHT22;5026;51.494;11.974;2022-07-17T14:24:56;25.30;37.40
9971;DHT22;5026;51.494;11.974;2022-07-17T14:27:23;25.40;37.40
9971;DHT22;5026;51.494;11.974;2022-07-17T14:29:50;25.50;37.60
9971;DHT22;5026;51.494;11.974;2022-07-17T14:32:17;25.50;37.40
9971;DHT22;5026;51.494;11.974;2022-07-17T14:34:44;25.50;37.10
9971;DHT22;5026;51.494;11.974;2022-07-17T14:37:13;25.40;37.00
9971;DHT22;5026;51.494;11.974;2022-07-17T14:39:40;25.30;36.80
9971;DHT22;5026;51.494;11.974;2022-07-17T14:42:07;25.40;37.40
9971;DHT22;5026;51.494;11.974;2022-07-17T14:44:33;25.30;36.70
9971;DHT22;5026;51.494;11.974;2022-07-17T14:47:01;25.10;36.20
9971;DHT22;5026;51.494;11.974;2022-07-17T14:49:28;25.00;36.60
9971;DHT22;5026;51.494;11.974;2022-07-17T14:51:55;25.10;36.90
9971;DHT22;5026;51.494;11.974;2022-07-17T14:54:23;25.10;36.10
9971;DHT22;5026;51.494;11.974;2022-07-17T14:56:50;24.80;35.00
9971;DHT22;5026;51.494;11.974;2022-07-17T14:59:17;24.70;35.70
9971;DHT22;5026;51.494;11.974;2022-07-17T15:01:43;24.70;35.70
9971;DHT22;5026;51.494;11.974;2022-07-17T15:04:10;24.90;36.30
9971;DHT22;5026;51.494;11.974;2022-07-17T15:06:38;25.00;36.50
9971;DHT22;5026;51.494;11.974;2022-07-17T15:09:06;25.10;35.70
9971;DHT22;5026;51.494;11.974;2022-07-17T15:11:35;25.20;35.90
9971;DHT22;5026;51.494;11.974;2022-07-17T15:14:01;25.20;36.50
9971;DHT22;5026;51.494;11.974;2022-07-17T15:16:28;25.30;36.70
9971;DHT22;5026;51.494;11.974;2022-07-17T15:18:55;25.30;35.60
9971;DHT22;5026;51.494;11.974;2022-07-17T15:21:23;25.30;35.90
9971;DHT22;5026;51.494;11.974;2022-07-17T15:23:50;25.30;35.10
9971;DHT22;5026;51.494;11.974;2022-07-17T15:26:16;25.30;34.40
9971;DHT22;5026;51.494;11.974;2022-07-17T15:28:45;25.20;34.30
9971;DHT22;5026;51.494;11.974;2022-07-17T15:31:12;25.30;35.80
9971;DHT22;5026;51.494;11.974;2022-07-17T15:33:38;25.30;34.50
9971;DHT22;5026;51.494;11.974;2022-07-17T15:36:08;25.30;35.10
9971;DHT22;5026;51.494;11.974;2022-07-17T15:38:35;25.30;35.00
9971;DHT22;5026;51.494;11.974;2022-07-17T15:41:02;25.20;35.90
9971;DHT22;5026;51.494;11.974;2022-07-17T15:43:30;25.10;36.40
9971;DHT22;5026;51.494;11.974;2022-07-17T15:45:58;25.10;36.80
9971;DHT22;5026;51.494;11.974;2022-07-17T15:48:25;25.10;36.30
9971;DHT22;5026;51.494;11.974;2022-07-17T15:50:52;25.00;36.40